sensor_id;sensor_type;location;lat;lon;timestamp;P1;durP1;ratioP1;P2;durP2;ratioP2
4009;SDS011;2019;48.200;11.548;2022-09-17T00:01:51;10.13;;;6.37;;
4009;SDS011;2019;48.200;11.548;2022-09-17T00:04:18;14.70;;;7.50;;
4009;SDS011;2019;48.200;11.548;2022-09-17T00:06:43;11.10;;;7.93;;
4009;SDS011;2019;48.200;11.548;2022-09-17T00:09:09;12.20;;;8.07;;
4009;SDS011;2019;48.200;11.548;2022-09-17T00:11:35;11.30;;;7.80;;
4009;SDS011;2019;48.200;11.548;2022-09-17T00:14:04;15.27;;;6.20;;
4009;SDS011;2019;48.200;11.548;2022-09-17T00:16:35;9.53;;;7.10;;
4009;SDS011;2019;48.200;11.548;2022-09-17T00:19:04;10.00;;;6.60;;
4009;SDS011;2019;48.200;11.548;2022-09-17T00:21:33;12.90;;;6.93;;
4009;SDS011;2019;48.200;11.548;2022-09-17T00:24:01;11.97;;;6.50;;
4009;SDS011;2019;48.200;11.548;2022-09-17T00:26:28;9.50;;;5.80;;
4009;SDS011;2019;48.200;11.548;2022-09-17T00:28:56;10.60;;;5.93;;
4009;SDS011;2019;48.200;11.548;2022-09-17T00:31:22;18.33;;;6.37;;
4009;SDS011;2019;48.200;11.548;2022-09-17T00:33:49;6.77;;;5.93;;
4009;SDS011;2019;48.200;11.548;2022-09-17T00:36:15;10.03;;;5.40;;
4009;SDS011;2019;48.200;11.548;2022-09-17T00:38:41;11.10;;;5.70;;
4009;SDS011;2019;48.200;11.548;2022-09-17T00:41:07;6.93;;;4.43;;
4009;SDS011;2019;48.200;11.548;2022-09-17T00:43:47;6.03;;;4.17;;
4009;SDS011;2019;48.200;11.548;2022-09-17T00:48:48;13.80;;;4.20;;
4009;SDS011;2019;48.200;11.548;2022-09-17T00:51:17;5.83;;;3.60;;
4009;SDS011;2019;48.200;11.548;2022-09-17T00:53:49;7.63;;;4.10;;
4009;SDS011;2019;48.200;11.548;2022-09-17T00:56:28;6.20;;;4.20;;
4009;SDS011;2019;48.200;11.548;2022-09-17T00:58:56;7.13;;;4.10;;
4009;SDS011;2019;48.200;11.548;2022-09-17T01:01:22;5.80;;;4.07;;
4009;SDS011;2019;48.200;11.548;2022-09-17T01:03:49;8.37;;;4.47;;
4009;SDS011;2019;48.200;11.548;2022-09-17T01:06:36;7.70;;;4.47;;
4009;SDS011;2019;48.200;11.548;2022-09-17T01:15:06;10.33;;;4.33;;
4009;SDS011;2019;48.200;11.548;2022-09-17T01:17:44;4.30;;;3.90;;
4009;SDS011;2019;48.200;11.548;2022-09-17T01:22:58;6.93;;;4.50;;
4009;SDS011;2019;48.200;11.548;2022-09-17T01:39:29;10.87;;;3.77;;
4009;SDS011;2019;48.200;11.548;2022-09-17T01:47:36;5.13;;;3.43;;
4009;SDS011;2019;48.200;11.548;2022-09-17T01:50:08;5.80;;;3.50;;
4009;SDS011;2019;48.200;11.548;2022-09-17T01:52:37;4.40;;;3.30;;
4009;SDS011;2019;48.200;11.548;2022-09-17T01:55:09;4.83;;;3.67;;
4009;SDS011;2019;48.200;11.548;2022-09-17T02:00:08;15.03;;;4.10;;
4009;SDS011;2019;48.200;11.548;2022-09-17T02:02:39;5.27;;;3.17;;
4009;SDS011;2019;48.200;11.548;2022-09-17T02:05:21;4.80;;;3.17;;
4009;SDS011;2019;48.200;11.548;2022-09-17T02:07:54;6.73;;;2.90;;
4009;SDS011;2019;48.200;11.548;2022-09-17T02:10:27;4.77;;;3.13;;
4009;SDS011;2019;48.200;11.548;2022-09-17T02:13:00;5.37;;;3.13;;
4009;SDS011;2019;48.200;11.548;2022-09-17T02:15:33;5.13;;;3.40;;
4009;SDS011;2019;48.200;11.548;2022-09-17T02:18:12;5.67;;;2.90;;
4009;SDS011;2019;48.200;11.548;2022-09-17T02:20:47;6.70;;;3.00;;
4009;SDS011;2019;48.200;11.548;2022-09-17T02:23:22;4.20;;;3.00;;
4009;SDS011;2019;48.200;11.548;2022-09-17T02:25:58;4.67;;;3.00;;
4009;SDS011;2019;48.200;11.548;2022-09-17T02:28:40;6.23;;;3.43;;
4009;SDS011;2019;48.200;11.548;2022-09-17T02:31:12;4.33;;;3.23;;
4009;SDS011;2019;48.200;11.548;2022-09-17T02:33:38;3.70;;;2.63;;
4009;SDS011;2019;48.200;11.548;2022-09-17T02:36:07;4.00;;;2.70;;
4009;SDS011;2019;48.200;11.548;2022-09-17T02:38:33;4.00;;;2.70;;
4009;SDS011;2019;48.200;11.548;2022-09-17T02:41:03;4.97;;;2.67;;
4009;SDS011;2019;48.200;11.548;2022-09-17T02:43:41;5.73;;;2.60;;
4009;SDS011;2019;48.200;11.548;2022-09-17T02:49:01;3.00;;;2.40;;
4009;SDS011;2019;48.200;11.548;2022-09-17T02:59:58;3.63;;;2.10;;
4009;SDS011;2019;48.200;11.548;2022-09-17T03:02:39;2.60;;;2.20;;
4009;SDS011;2019;48.200;11.548;2022-09-17T03:05:07;6.80;;;2.73;;
4009;SDS011;2019;48.200;11.548;2022-09-17T03:07:34;2.73;;;1.90;;
4009;SDS011;2019;48.200;11.548;2022-09-17T03:10:01;4.90;;;2.33;;
4009;SDS011;2019;48.200;11.548;2022-09-17T03:12:26;2.80;;;2.13;;
4009;SDS011;2019;48.200;11.548;2022-09-17T03:14:52;3.80;;;2.37;;
4009;SDS011;2019;48.200;11.548;2022-09-17T03:17:18;8.47;;;2.20;;
4009;SDS011;2019;48.200;11.548;2022-09-17T03:19:44;4.07;;;2.37;;
4009;SDS011;2019;48.200;11.548;2022-09-17T03:22:10;4.60;;;2.47;;
4009;SDS011;2019;48.200;11.548;2022-09-17T03:24:36;2.80;;;2.10;;
4009;SDS011;2019;48.200;11.548;2022-09-17T03:27:02;6.10;;;1.80;;
4009;SDS011;2019;48.200;11.548;2022-09-17T03:29:27;3.90;;;1.97;;
4009;SDS011;2019;48.200;11.548;2022-09-17T03:31:53;5.00;;;2.23;;
4009;SDS011;2019;48.200;11.548;2022-09-17T03:34:19;2.87;;;2.23;;
4009;SDS011;2019;48.200;11.548;2022-09-17T03:36:45;4.30;;;2.00;;
4009;SDS011;2019;48.200;11.548;2022-09-17T03:39:10;3.77;;;2.13;;
4009;SDS011;2019;48.200;11.548;2022-09-17T03:41:37;6.70;;;2.70;;
4009;SDS011;2019;48.200;11.548;2022-09-17T03:44:03;3.90;;;2.23;;
4009;SDS011;2019;48.200;11.548;2022-09-17T03:46:29;2.83;;;2.40;;
4009;SDS011;2019;48.200;11.548;2022-09-17T03:48:54;10.90;;;3.03;;
4009;SDS011;2019;48.200;11.548;2022-09-17T03:51:20;5.50;;;2.40;;
4009;SDS011;2019;48.200;11.548;2022-09-17T03:53:46;3.67;;;2.10;;
4009;SDS011;2019;48.200;11.548;2022-09-17T03:56:11;3.77;;;2.37;;
4009;SDS011;2019;48.200;11.548;2022-09-17T03:58:37;2.90;;;1.93;;
4009;SDS011;2019;48.200;11.548;2022-09-17T04:01:03;3.97;;;2.10;;
4009;SDS011;2019;48.200;11.548;2022-09-17T04:03:29;3.70;;;2.20;;
4009;SDS011;2019;48.200;11.548;2022-09-17T04:05:55;4.10;;;2.07;;
4009;SDS011;2019;48.200;11.548;2022-09-17T04:08:21;5.20;;;2.20;;
4009;SDS011;2019;48.200;11.548;2022-09-17T04:10:47;4.57;;;2.40;;
4009;SDS011;2019;48.200;11.548;2022-09-17T04:13:13;3.17;;;2.50;;
4009;SDS011;2019;48.200;11.548;2022-09-17T04:15:39;3.57;;;2.30;;
4009;SDS011;2019;48.200;11.548;2022-09-17T04:18:06;6.13;;;2.47;;
4009;SDS011;2019;48.200;11.548;2022-09-17T04:20:31;2.83;;;2.37;;
4009;SDS011;2019;48.200;11.548;2022-09-17T04:22:57;4.43;;;2.40;;
4009;SDS011;2019;48.200;11.548;2022-09-17T04:25:23;2.53;;;2.23;;
4009;SDS011;2019;48.200;11.548;2022-09-17T04:27:48;3.50;;;2.57;;
4009;SDS011;2019;48.200;11.548;2022-09-17T04:30:14;5.90;;;3.00;;
4009;SDS011;2019;48.200;11.548;2022-09-17T04:32:41;4.10;;;2.80;;
4009;SDS011;2019;48.200;11.548;2022-09-17T04:35:08;6.70;;;3.03;;
4009;SDS011;2019;48.200;11.548;2022-09-17T04:37:33;4.17;;;2.93;;
4009;SDS011;2019;48.200;11.548;2022-09-17T04:39:59;4.73;;;2.83;;
4009;SDS011;2019;48.200;11.548;2022-09-17T04:42:25;6.37;;;3.00;;
4009;SDS011;2019;48.200;11.548;2022-09-17T04:44:50;5.90;;;3.40;;
4009;SDS011;2019;48.200;11.548;2022-09-17T04:47:16;3.60;;;2.93;;
4009;SDS011;2019;48.200;11.548;2022-09-17T04:49:42;4.90;;;3.30;;
4009;SDS011;2019;48.200;11.548;2022-09-17T04:52:07;8.03;;;3.87;;
4009;SDS011;2019;48.200;11.548;2022-09-17T04:54:33;6.60;;;2.83;;
4009;SDS011;2019;48.200;11.548;2022-09-17T04:56:59;4.60;;;3.27;;
4009;SDS011;2019;48.200;11.548;2022-09-17T04:59:24;5.40;;;3.00;;
4009;SDS011;2019;48.200;11.548;2022-09-17T05:01:50;5.33;;;2.93;;
4009;SDS011;2019;48.200;11.548;2022-09-17T05:04:15;3.33;;;2.80;;
4009;SDS011;2019;48.200;11.548;2022-09-17T05:06:41;6.90;;;3.23;;
4009;SDS011;2019;48.200;11.548;2022-09-17T05:09:07;5.40;;;2.93;;
4009;SDS011;2019;48.200;11.548;2022-09-17T05:11:33;4.80;;;3.40;;
4009;SDS011;2019;48.200;11.548;2022-09-17T05:13:58;5.03;;;3.30;;
4009;SDS011;2019;48.200;11.548;2022-09-17T05:16:24;4.13;;;2.97;;
4009;SDS011;2019;48.200;11.548;2022-09-17T05:18:49;4.53;;;3.47;;
4009;SDS011;2019;48.200;11.548;2022-09-17T05:21:16;3.40;;;2.87;;
4009;SDS011;2019;48.200;11.548;2022-09-17T05:23:42;3.33;;;2.90;;
4009;SDS011;2019;48.200;11.548;2022-09-17T05:26:07;3.20;;;2.77;;
4009;SDS011;2019;48.200;11.548;2022-09-17T05:28:33;6.87;;;3.30;;
4009;SDS011;2019;48.200;11.548;2022-09-17T05:30:59;5.33;;;3.60;;
4009;SDS011;2019;48.200;11.548;2022-09-17T05:33:25;4.27;;;3.00;;
4009;SDS011;2019;48.200;11.548;2022-09-17T05:35:51;4.47;;;3.10;;
4009;SDS011;2019;48.200;11.548;2022-09-17T05:38:17;8.70;;;2.53;;
4009;SDS011;2019;48.200;11.548;2022-09-17T05:40:43;5.73;;;3.23;;
4009;SDS011;2019;48.200;11.548;2022-09-17T05:43:09;7.40;;;3.40;;
4009;SDS011;2019;48.200;11.548;2022-09-17T05:45:35;3.83;;;3.20;;
4009;SDS011;2019;48.200;11.548;2022-09-17T05:48:02;11.00;;;3.17;;
4009;SDS011;2019;48.200;11.548;2022-09-17T05:50:29;4.30;;;2.97;;
4009;SDS011;2019;48.200;11.548;2022-09-17T05:52:55;7.33;;;3.50;;
4009;SDS011;2019;48.200;11.548;2022-09-17T05:55:21;4.13;;;3.00;;
4009;SDS011;2019;48.200;11.548;2022-09-17T05:57:48;4.23;;;2.80;;
4009;SDS011;2019;48.200;11.548;2022-09-17T06:00:14;7.50;;;3.60;;
4009;SDS011;2019;48.200;11.548;2022-09-17T06:02:40;5.00;;;2.83;;
4009;SDS011;2019;48.200;11.548;2022-09-17T06:05:06;4.10;;;3.27;;
4009;SDS011;2019;48.200;11.548;2022-09-17T06:07:36;4.40;;;3.17;;
4009;SDS011;2019;48.200;11.548;2022-09-17T06:10:03;6.27;;;3.00;;
4009;SDS011;2019;48.200;11.548;2022-09-17T06:12:30;4.67;;;2.80;;
4009;SDS011;2019;48.200;11.548;2022-09-17T06:14:56;3.10;;;2.80;;
4009;SDS011;2019;48.200;11.548;2022-09-17T06:17:21;14.60;;;3.50;;
4009;SDS011;2019;48.200;11.548;2022-09-17T06:19:47;6.10;;;3.07;;
4009;SDS011;2019;48.200;11.548;2022-09-17T06:22:12;4.90;;;2.53;;
4009;SDS011;2019;48.200;11.548;2022-09-17T06:24:38;5.10;;;3.10;;
4009;SDS011;2019;48.200;11.548;2022-09-17T06:27:04;6.87;;;3.30;;
4009;SDS011;2019;48.200;11.548;2022-09-17T06:29:29;4.10;;;2.80;;
4009;SDS011;2019;48.200;11.548;2022-09-17T06:31:55;3.90;;;3.00;;
4009;SDS011;2019;48.200;11.548;2022-09-17T06:34:20;4.40;;;2.80;;
4009;SDS011;2019;48.200;11.548;2022-09-17T06:36:47;9.30;;;3.80;;
4009;SDS011;2019;48.200;11.548;2022-09-17T06:39:13;12.07;;;5.00;;
4009;SDS011;2019;48.200;11.548;2022-09-17T06:41:42;34.07;;;13.90;;
4009;SDS011;2019;48.200;11.548;2022-09-17T06:44:08;24.07;;;11.13;;
4009;SDS011;2019;48.200;11.548;2022-09-17T06:46:34;10.67;;;7.60;;
4009;SDS011;2019;48.200;11.548;2022-09-17T06:49:00;6.53;;;4.73;;
4009;SDS011;2019;48.200;11.548;2022-09-17T06:51:25;7.87;;;4.70;;
4009;SDS011;2019;48.200;11.548;2022-09-17T06:53:51;11.77;;;6.33;;
4009;SDS011;2019;48.200;11.548;2022-09-17T06:56:17;5.90;;;4.20;;
4009;SDS011;2019;48.200;11.548;2022-09-17T06:58:42;6.07;;;3.50;;
4009;SDS011;2019;48.200;11.548;2022-09-17T07:01:11;7.37;;;3.87;;
4009;SDS011;2019;48.200;11.548;2022-09-17T07:03:37;5.50;;;3.87;;
4009;SDS011;2019;48.200;11.548;2022-09-17T07:06:03;5.93;;;3.30;;
4009;SDS011;2019;48.200;11.548;2022-09-17T07:08:33;7.40;;;3.00;;
4009;SDS011;2019;48.200;11.548;2022-09-17T07:10:58;8.10;;;4.73;;
4009;SDS011;2019;48.200;11.548;2022-09-17T07:13:24;7.40;;;4.13;;
4009;SDS011;2019;48.200;11.548;2022-09-17T07:15:57;7.90;;;3.50;;
4009;SDS011;2019;48.200;11.548;2022-09-17T07:18:25;7.13;;;3.10;;
4009;SDS011;2019;48.200;11.548;2022-09-17T07:20:54;5.93;;;3.33;;
4009;SDS011;2019;48.200;11.548;2022-09-17T07:23:22;7.33;;;3.13;;
4009;SDS011;2019;48.200;11.548;2022-09-17T07:25:52;10.30;;;4.60;;
4009;SDS011;2019;48.200;11.548;2022-09-17T07:28:18;7.93;;;4.80;;
4009;SDS011;2019;48.200;11.548;2022-09-17T07:30:44;10.20;;;5.10;;
4009;SDS011;2019;48.200;11.548;2022-09-17T07:33:10;11.00;;;5.77;;
4009;SDS011;2019;48.200;11.548;2022-09-17T07:35:36;9.63;;;6.20;;
4009;SDS011;2019;48.200;11.548;2022-09-17T07:40:35;8.73;;;3.30;;
4009;SDS011;2019;48.200;11.548;2022-09-17T07:43:01;8.77;;;3.10;;
4009;SDS011;2019;48.200;11.548;2022-09-17T07:45:27;7.97;;;5.17;;
4009;SDS011;2019;48.200;11.548;2022-09-17T07:47:52;11.93;;;6.93;;
4009;SDS011;2019;48.200;11.548;2022-09-17T07:50:18;13.03;;;4.27;;
4009;SDS011;2019;48.200;11.548;2022-09-17T07:52:44;7.53;;;3.60;;
4009;SDS011;2019;48.200;11.548;2022-09-17T07:55:11;5.57;;;2.70;;
4009;SDS011;2019;48.200;11.548;2022-09-17T07:57:36;15.87;;;3.70;;
4009;SDS011;2019;48.200;11.548;2022-09-17T08:00:02;8.47;;;2.43;;
4009;SDS011;2019;48.200;11.548;2022-09-17T08:02:28;5.87;;;2.90;;
4009;SDS011;2019;48.200;11.548;2022-09-17T08:04:54;5.10;;;2.63;;
4009;SDS011;2019;48.200;11.548;2022-09-17T08:07:19;4.87;;;3.73;;
4009;SDS011;2019;48.200;11.548;2022-09-17T08:09:45;7.90;;;2.80;;
4009;SDS011;2019;48.200;11.548;2022-09-17T08:12:10;6.20;;;2.20;;
4009;SDS011;2019;48.200;11.548;2022-09-17T08:14:36;5.93;;;3.30;;
4009;SDS011;2019;48.200;11.548;2022-09-17T08:17:03;6.37;;;3.00;;
4009;SDS011;2019;48.200;11.548;2022-09-17T08:19:32;8.17;;;3.50;;
4009;SDS011;2019;48.200;11.548;2022-09-17T08:21:57;5.93;;;2.47;;
4009;SDS011;2019;48.200;11.548;2022-09-17T08:24:23;10.63;;;2.53;;
4009;SDS011;2019;48.200;11.548;2022-09-17T08:26:49;7.07;;;2.50;;
4009;SDS011;2019;48.200;11.548;2022-09-17T08:29:14;4.90;;;1.97;;
4009;SDS011;2019;48.200;11.548;2022-09-17T08:31:40;9.80;;;2.40;;
4009;SDS011;2019;48.200;11.548;2022-09-17T08:34:06;11.13;;;2.63;;
4009;SDS011;2019;48.200;11.548;2022-09-17T08:36:33;4.17;;;2.00;;
4009;SDS011;2019;48.200;11.548;2022-09-17T08:38:59;6.47;;;2.50;;
4009;SDS011;2019;48.200;11.548;2022-09-17T08:41:27;6.23;;;2.17;;
4009;SDS011;2019;48.200;11.548;2022-09-17T08:44:17;5.10;;;2.30;;
4009;SDS011;2019;48.200;11.548;2022-09-17T08:46:49;7.00;;;2.00;;
4009;SDS011;2019;48.200;11.548;2022-09-17T08:49:40;5.00;;;2.13;;
4009;SDS011;2019;48.200;11.548;2022-09-17T09:00:31;8.63;;;2.10;;
4009;SDS011;2019;48.200;11.548;2022-09-17T09:03:23;6.60;;;2.20;;
4009;SDS011;2019;48.200;11.548;2022-09-17T09:05:55;6.50;;;2.10;;
4009;SDS011;2019;48.200;11.548;2022-09-17T09:08:35;3.13;;;2.40;;
4009;SDS011;2019;48.200;11.548;2022-09-17T09:11:15;3.43;;;2.57;;
4009;SDS011;2019;48.200;11.548;2022-09-17T09:13:47;6.90;;;2.00;;
4009;SDS011;2019;48.200;11.548;2022-09-17T09:16:19;3.40;;;1.90;;
4009;SDS011;2019;48.200;11.548;2022-09-17T09:18:50;5.80;;;2.50;;
4009;SDS011;2019;48.200;11.548;2022-09-17T09:21:28;12.00;;;3.50;;
4009;SDS011;2019;48.200;11.548;2022-09-17T09:26:44;7.83;;;2.27;;
4009;SDS011;2019;48.200;11.548;2022-09-17T09:34:34;5.30;;;2.20;;
4009;SDS011;2019;48.200;11.548;2022-09-17T09:37:12;5.50;;;2.60;;
4009;SDS011;2019;48.200;11.548;2022-09-17T09:39:41;3.77;;;2.10;;
4009;SDS011;2019;48.200;11.548;2022-09-17T09:42:22;4.00;;;2.20;;
4009;SDS011;2019;48.200;11.548;2022-09-17T09:45:01;10.57;;;3.10;;
4009;SDS011;2019;48.200;11.548;2022-09-17T09:50:32;4.77;;;2.83;;
4009;SDS011;2019;48.200;11.548;2022-09-17T09:55:40;7.70;;;3.30;;
4009;SDS011;2019;48.200;11.548;2022-09-17T09:58:39;4.97;;;2.60;;
4009;SDS011;2019;48.200;11.548;2022-09-17T10:01:47;6.30;;;3.10;;
4009;SDS011;2019;48.200;11.548;2022-09-17T10:03:55;8.00;;;3.10;;
4009;SDS011;2019;48.200;11.548;2022-09-17T10:06:22;4.10;;;3.20;;
4009;SDS011;2019;48.200;11.548;2022-09-17T10:11:21;13.13;;;4.20;;
4009;SDS011;2019;48.200;11.548;2022-09-17T10:13:49;7.20;;;3.90;;
4009;SDS011;2019;48.200;11.548;2022-09-17T10:18:49;10.13;;;3.50;;
4009;SDS011;2019;48.200;11.548;2022-09-17T10:21:36;5.80;;;3.40;;
4009;SDS011;2019;48.200;11.548;2022-09-17T10:24:24;8.10;;;3.63;;
4009;SDS011;2019;48.200;11.548;2022-09-17T10:27:26;3.80;;;3.27;;
4009;SDS011;2019;48.200;11.548;2022-09-17T10:29:47;5.37;;;3.00;;
4009;SDS011;2019;48.200;11.548;2022-09-17T10:32:16;9.57;;;3.03;;
4009;SDS011;2019;48.200;11.548;2022-09-17T10:34:59;6.40;;;3.70;;
4009;SDS011;2019;48.200;11.548;2022-09-17T10:37:31;5.60;;;3.20;;
4009;SDS011;2019;48.200;11.548;2022-09-17T10:39:59;7.33;;;3.37;;
4009;SDS011;2019;48.200;11.548;2022-09-17T10:42:25;7.83;;;3.00;;
4009;SDS011;2019;48.200;11.548;2022-09-17T10:44:54;6.07;;;3.33;;
4009;SDS011;2019;48.200;11.548;2022-09-17T10:47:25;5.63;;;3.70;;
4009;SDS011;2019;48.200;11.548;2022-09-17T10:49:59;4.30;;;3.00;;
4009;SDS011;2019;48.200;11.548;2022-09-17T10:52:32;11.53;;;4.20;;
4009;SDS011;2019;48.200;11.548;2022-09-17T10:55:05;5.90;;;3.03;;
4009;SDS011;2019;48.200;11.548;2022-09-17T10:57:56;4.33;;;3.10;;
4009;SDS011;2019;48.200;11.548;2022-09-17T11:00:25;5.57;;;3.30;;
4009;SDS011;2019;48.200;11.548;2022-09-17T11:11:37;8.90;;;2.20;;
4009;SDS011;2019;48.200;11.548;2022-09-17T11:19:42;4.73;;;2.33;;
4009;SDS011;2019;48.200;11.548;2022-09-17T11:27:27;3.67;;;2.03;;
4009;SDS011;2019;48.200;11.548;2022-09-17T11:30:20;9.23;;;1.90;;
4009;SDS011;2019;48.200;11.548;2022-09-17T11:35:20;2.90;;;1.40;;
4009;SDS011;2019;48.200;11.548;2022-09-17T11:38:08;4.33;;;1.90;;
4009;SDS011;2019;48.200;11.548;2022-09-17T11:41:02;10.00;;;2.00;;
4009;SDS011;2019;48.200;11.548;2022-09-17T11:43:46;3.93;;;1.90;;
4009;SDS011;2019;48.200;11.548;2022-09-17T11:46:53;7.53;;;2.60;;
4009;SDS011;2019;48.200;11.548;2022-09-17T11:49:36;6.20;;;2.17;;
4009;SDS011;2019;48.200;11.548;2022-09-17T11:52:03;3.10;;;1.90;;
4009;SDS011;2019;48.200;11.548;2022-09-17T11:57:32;5.33;;;2.13;;
4009;SDS011;2019;48.200;11.548;2022-09-17T12:02:38;7.30;;;2.93;;
4009;SDS011;2019;48.200;11.548;2022-09-17T12:05:14;4.53;;;2.23;;
4009;SDS011;2019;48.200;11.548;2022-09-17T12:10:48;5.67;;;2.87;;
4009;SDS011;2019;48.200;11.548;2022-09-17T12:13:44;3.90;;;2.17;;
4009;SDS011;2019;48.200;11.548;2022-09-17T12:16:18;4.07;;;2.30;;
4009;SDS011;2019;48.200;11.548;2022-09-17T12:18:58;8.73;;;3.40;;
4009;SDS011;2019;48.200;11.548;2022-09-17T12:22:00;6.33;;;2.60;;
4009;SDS011;2019;48.200;11.548;2022-09-17T12:24:32;9.40;;;2.40;;
4009;SDS011;2019;48.200;11.548;2022-09-17T12:29:45;4.50;;;2.23;;
4009;SDS011;2019;48.200;11.548;2022-09-17T12:51:56;3.73;;;2.40;;
4009;SDS011;2019;48.200;11.548;2022-09-17T12:54:28;3.33;;;2.37;;
4009;SDS011;2019;48.200;11.548;2022-09-17T12:59:55;3.73;;;2.50;;
4009;SDS011;2019;48.200;11.548;2022-09-17T13:21:39;5.30;;;2.03;;
4009;SDS011;2019;48.200;11.548;2022-09-17T13:24:25;2.90;;;2.33;;
4009;SDS011;2019;48.200;11.548;2022-09-17T13:26:54;4.10;;;2.47;;
4009;SDS011;2019;48.200;11.548;2022-09-17T13:34:56;7.47;;;2.17;;
4009;SDS011;2019;48.200;11.548;2022-09-17T13:40:04;3.50;;;1.77;;
4009;SDS011;2019;48.200;11.548;2022-09-17T13:43:04;3.93;;;2.27;;
4009;SDS011;2019;48.200;11.548;2022-09-17T13:48:25;4.00;;;2.87;;
4009;SDS011;2019;48.200;11.548;2022-09-17T13:53:54;5.53;;;2.30;;
4009;SDS011;2019;48.200;11.548;2022-09-17T13:56:31;3.60;;;2.23;;
4009;SDS011;2019;48.200;11.548;2022-09-17T13:59:09;4.70;;;3.00;;
4009;SDS011;2019;48.200;11.548;2022-09-17T14:04:34;6.10;;;2.87;;
4009;SDS011;2019;48.200;11.548;2022-09-17T14:09:53;4.27;;;2.30;;
4009;SDS011;2019;48.200;11.548;2022-09-17T14:18:00;4.53;;;2.40;;
4009;SDS011;2019;48.200;11.548;2022-09-17T14:20:46;4.33;;;2.13;;
4009;SDS011;2019;48.200;11.548;2022-09-17T14:23:13;2.87;;;1.50;;
4009;SDS011;2019;48.200;11.548;2022-09-17T14:25:39;3.20;;;1.63;;
4009;SDS011;2019;48.200;11.548;2022-09-17T14:31:26;2.00;;;1.10;;
4009;SDS011;2019;48.200;11.548;2022-09-17T14:33:58;3.67;;;1.53;;
4009;SDS011;2019;48.200;11.548;2022-09-17T14:36:28;2.70;;;1.30;;
4009;SDS011;2019;48.200;11.548;2022-09-17T14:38:58;4.30;;;1.73;;
4009;SDS011;2019;48.200;11.548;2022-09-17T14:41:25;4.90;;;1.53;;
4009;SDS011;2019;48.200;11.548;2022-09-17T14:43:59;3.70;;;1.70;;
4009;SDS011;2019;48.200;11.548;2022-09-17T14:46:28;5.57;;;1.93;;
4009;SDS011;2019;48.200;11.548;2022-09-17T14:48:54;2.20;;;1.40;;
4009;SDS011;2019;48.200;11.548;2022-09-17T14:51:40;3.83;;;1.83;;
4009;SDS011;2019;48.200;11.548;2022-09-17T14:54:19;4.30;;;1.70;;
4009;SDS011;2019;48.200;11.548;2022-09-17T14:57:11;2.93;;;1.83;;
4009;SDS011;2019;48.200;11.548;2022-09-17T15:05:24;3.07;;;1.40;;
4009;SDS011;2019;48.200;11.548;2022-09-17T15:07:51;3.10;;;1.40;;
4009;SDS011;2019;48.200;11.548;2022-09-17T15:13:30;3.53;;;1.43;;
4009;SDS011;2019;48.200;11.548;2022-09-17T15:18:39;4.07;;;1.87;;
4009;SDS011;2019;48.200;11.548;2022-09-17T15:21:18;4.77;;;1.40;;
4009;SDS011;2019;48.200;11.548;2022-09-17T15:23:45;3.23;;;1.67;;
4009;SDS011;2019;48.200;11.548;2022-09-17T15:26:14;2.20;;;1.23;;
4009;SDS011;2019;48.200;11.548;2022-09-17T15:28:46;4.80;;;1.13;;
4009;SDS011;2019;48.200;11.548;2022-09-17T15:31:17;2.93;;;1.17;;
4009;SDS011;2019;48.200;11.548;2022-09-17T15:33:44;2.73;;;1.20;;
4009;SDS011;2019;48.200;11.548;2022-09-17T15:38:51;1.93;;;1.03;;
4009;SDS011;2019;48.200;11.548;2022-09-17T15:43:43;2.07;;;1.30;;
4009;SDS011;2019;48.200;11.548;2022-09-17T15:46:29;1.43;;;0.90;;
4009;SDS011;2019;48.200;11.548;2022-09-17T15:49:02;2.50;;;1.13;;
4009;SDS011;2019;48.200;11.548;2022-09-17T15:51:48;1.73;;;1.10;;
4009;SDS011;2019;48.200;11.548;2022-09-17T15:54:27;4.00;;;2.33;;
4009;SDS011;2019;48.200;11.548;2022-09-17T15:56:55;2.23;;;1.33;;
4009;SDS011;2019;48.200;11.548;2022-09-17T15:59:25;3.43;;;1.10;;
4009;SDS011;2019;48.200;11.548;2022-09-17T16:01:54;1.87;;;1.20;;
4009;SDS011;2019;48.200;11.548;2022-09-17T16:04:22;3.17;;;1.60;;
4009;SDS011;2019;48.200;11.548;2022-09-17T16:06:57;4.47;;;1.57;;
4009;SDS011;2019;48.200;11.548;2022-09-17T16:09:36;1.77;;;1.40;;
4009;SDS011;2019;48.200;11.548;2022-09-17T16:12:32;2.33;;;1.30;;
4009;SDS011;2019;48.200;11.548;2022-09-17T16:14:58;3.73;;;1.30;;
4009;SDS011;2019;48.200;11.548;2022-09-17T16:17:31;3.63;;;1.40;;
4009;SDS011;2019;48.200;11.548;2022-09-17T16:19:59;2.93;;;1.30;;
4009;SDS011;2019;48.200;11.548;2022-09-17T16:22:30;2.80;;;1.80;;
4009;SDS011;2019;48.200;11.548;2022-09-17T16:24:55;4.60;;;1.70;;
4009;SDS011;2019;48.200;11.548;2022-09-17T16:27:23;2.10;;;1.40;;
4009;SDS011;2019;48.200;11.548;2022-09-17T16:29:51;2.70;;;1.10;;
4009;SDS011;2019;48.200;11.548;2022-09-17T16:32:22;2.50;;;1.30;;
4009;SDS011;2019;48.200;11.548;2022-09-17T16:34:49;3.13;;;1.60;;
4009;SDS011;2019;48.200;11.548;2022-09-17T16:37:15;2.10;;;1.30;;
4009;SDS011;2019;48.200;11.548;2022-09-17T16:39:41;1.80;;;1.00;;
4009;SDS011;2019;48.200;11.548;2022-09-17T16:42:07;2.10;;;1.00;;
4009;SDS011;2019;48.200;11.548;2022-09-17T16:44:33;2.33;;;0.70;;
4009;SDS011;2019;48.200;11.548;2022-09-17T16:46:59;2.17;;;1.20;;
4009;SDS011;2019;48.200;11.548;2022-09-17T16:49:24;1.10;;;0.83;;
4009;SDS011;2019;48.200;11.548;2022-09-17T16:51:50;1.73;;;1.30;;
4009;SDS011;2019;48.200;11.548;2022-09-17T16:54:15;1.63;;;1.07;;
4009;SDS011;2019;48.200;11.548;2022-09-17T16:56:41;2.10;;;1.00;;
4009;SDS011;2019;48.200;11.548;2022-09-17T16:59:07;5.80;;;1.23;;
4009;SDS011;2019;48.200;11.548;2022-09-17T17:01:32;4.80;;;1.73;;
4009;SDS011;2019;48.200;11.548;2022-09-17T17:03:58;8.50;;;1.70;;
4009;SDS011;2019;48.200;11.548;2022-09-17T17:06:24;5.37;;;1.80;;
4009;SDS011;2019;48.200;11.548;2022-09-17T17:08:50;5.77;;;2.90;;
4009;SDS011;2019;48.200;11.548;2022-09-17T17:11:16;3.37;;;1.80;;
4009;SDS011;2019;48.200;11.548;2022-09-17T17:13:42;3.70;;;2.00;;
4009;SDS011;2019;48.200;11.548;2022-09-17T17:16:09;2.00;;;1.13;;
4009;SDS011;2019;48.200;11.548;2022-09-17T17:18:37;2.50;;;1.63;;
4009;SDS011;2019;48.200;11.548;2022-09-17T17:21:06;3.03;;;1.40;;
4009;SDS011;2019;48.200;11.548;2022-09-17T17:23:33;4.80;;;1.60;;
4009;SDS011;2019;48.200;11.548;2022-09-17T17:25:59;6.50;;;1.70;;
4009;SDS011;2019;48.200;11.548;2022-09-17T17:28:28;9.70;;;4.60;;
4009;SDS011;2019;48.200;11.548;2022-09-17T17:30:56;2.93;;;1.73;;
4009;SDS011;2019;48.200;11.548;2022-09-17T17:33:21;5.30;;;1.40;;
4009;SDS011;2019;48.200;11.548;2022-09-17T17:35:47;4.30;;;2.00;;
4009;SDS011;2019;48.200;11.548;2022-09-17T17:38:13;2.50;;;1.50;;
4009;SDS011;2019;48.200;11.548;2022-09-17T17:40:41;3.43;;;2.10;;
4009;SDS011;2019;48.200;11.548;2022-09-17T17:43:08;4.27;;;2.10;;
4009;SDS011;2019;48.200;11.548;2022-09-17T17:45:33;2.50;;;1.53;;
4009;SDS011;2019;48.200;11.548;2022-09-17T17:47:59;4.40;;;1.70;;
4009;SDS011;2019;48.200;11.548;2022-09-17T17:50:25;3.20;;;1.90;;
4009;SDS011;2019;48.200;11.548;2022-09-17T17:52:52;4.17;;;2.30;;
4009;SDS011;2019;48.200;11.548;2022-09-17T17:55:18;4.90;;;2.30;;
4009;SDS011;2019;48.200;11.548;2022-09-17T17:57:44;5.20;;;2.43;;
4009;SDS011;2019;48.200;11.548;2022-09-17T18:00:10;4.80;;;2.10;;
4009;SDS011;2019;48.200;11.548;2022-09-17T18:02:36;2.97;;;1.80;;
4009;SDS011;2019;48.200;11.548;2022-09-17T18:05:02;6.80;;;1.80;;
4009;SDS011;2019;48.200;11.548;2022-09-17T18:07:28;5.23;;;2.33;;
4009;SDS011;2019;48.200;11.548;2022-09-17T18:09:54;2.93;;;2.00;;
4009;SDS011;2019;48.200;11.548;2022-09-17T18:12:19;3.40;;;2.10;;
4009;SDS011;2019;48.200;11.548;2022-09-17T18:14:45;4.33;;;2.10;;
4009;SDS011;2019;48.200;11.548;2022-09-17T18:17:10;5.93;;;2.80;;
4009;SDS011;2019;48.200;11.548;2022-09-17T18:19:36;4.67;;;3.23;;
4009;SDS011;2019;48.200;11.548;2022-09-17T18:22:01;4.90;;;2.90;;
4009;SDS011;2019;48.200;11.548;2022-09-17T18:24:28;4.10;;;2.33;;
4009;SDS011;2019;48.200;11.548;2022-09-17T18:26:53;4.47;;;3.30;;
4009;SDS011;2019;48.200;11.548;2022-09-17T18:29:19;3.10;;;2.10;;
4009;SDS011;2019;48.200;11.548;2022-09-17T18:31:44;5.73;;;2.43;;